Terminal Aerodrome Forecast
Issued by NWS Shreveport, LA

Home | Current Version | Previous Version | Text Only | Print | Product List | Glossary On
Versions: 1 2 3 4 5 6 7 8 9 10 11 12 13 14 15 16 17 18 19
749
FTUS44 KSHV 301743
TAFSHV
TAF
KSHV 301743Z 3018/0118 22008KT P6SM SCT050 BKN120
      TEMPO 3021/3024 -SHRA OVC040
     FM010000 VRB04KT P6SM SCT040
     FM010500 36005KT P6SM BKN015
      TEMPO 0108/0112 3SM BR OVC005
     FM011200 04006KT P6SM BKN010
      TEMPO 0116/0118 SCT020=

USA.gov is the U.S. government's official web portal to all federal, state and local government web resources and services.